sensor_id;sensor_type;location;lat;lon;timestamp;pressure;altitude;pressure_sealevel;temperature;humidity
12969;BME280;6549;53.128;8.182;2022-11-04T00:02:59;99600.38;;;11.22;100.00
12969;BME280;6549;53.128;8.182;2022-11-04T00:06:00;99597.44;;;11.09;100.00
12969;BME280;6549;53.128;8.182;2022-11-04T00:09:02;99585.72;;;11.05;100.00
12969;BME280;6549;53.128;8.182;2022-11-04T00:12:03;99598.63;;;11.08;100.00
12969;BME280;6549;53.128;8.182;2022-11-04T00:15:22;99603.78;;;11.30;100.00
12969;BME280;6549;53.128;8.182;2022-11-04T00:18:40;99598.41;;;11.22;100.00
12969;BME280;6549;53.128;8.182;2022-11-04T00:21:41;99585.84;;;11.21;100.00
12969;BME280;6549;53.128;8.182;2022-11-04T00:25:00;99587.50;;;11.15;100.00
12969;BME280;6549;53.128;8.182;2022-11-04T00:28:19;99584.88;;;11.08;100.00
12969;BME280;6549;53.128;8.182;2022-11-04T00:31:37;99589.91;;;11.13;100.00
12969;BME280;6549;53.128;8.182;2022-11-04T00:35:04;99589.44;;;11.18;100.00
12969;BME280;6549;53.128;8.182;2022-11-04T00:38:05;99597.69;;;11.18;100.00
12969;BME280;6549;53.128;8.182;2022-11-04T00:41:05;99607.06;;;11.21;100.00
12969;BME280;6549;53.128;8.182;2022-11-04T00:44:24;99605.41;;;11.27;100.00
12969;BME280;6549;53.128;8.182;2022-11-04T00:47:25;99599.44;;;11.32;100.00
12969;BME280;6549;53.128;8.182;2022-11-04T00:50:25;99596.84;;;11.21;100.00
12969;BME280;6549;53.128;8.182;2022-11-04T00:53:25;99590.63;;;11.17;100.00
12969;BME280;6549;53.128;8.182;2022-11-04T00:56:26;99595.25;;;11.24;100.00
12969;BME280;6549;53.128;8.182;2022-11-04T00:59:26;99591.81;;;11.16;100.00
12969;BME280;6549;53.128;8.182;2022-11-04T01:02:27;99596.19;;;11.14;100.00
12969;BME280;6549;53.128;8.182;2022-11-04T01:05:27;99595.03;;;11.11;100.00
12969;BME280;6549;53.128;8.182;2022-11-04T01:08:27;99591.88;;;11.13;100.00
12969;BME280;6549;53.128;8.182;2022-11-04T01:11:28;99597.22;;;11.23;100.00
12969;BME280;6549;53.128;8.182;2022-11-04T01:14:29;99595.66;;;11.22;100.00
12969;BME280;6549;53.128;8.182;2022-11-04T01:17:30;99598.75;;;11.24;100.00
12969;BME280;6549;53.128;8.182;2022-11-04T01:20:31;99594.72;;;11.33;100.00
12969;BME280;6549;53.128;8.182;2022-11-04T01:23:35;99575.09;;;11.31;100.00
12969;BME280;6549;53.128;8.182;2022-11-04T01:26:35;99568.41;;;11.32;100.00
12969;BME280;6549;53.128;8.182;2022-11-04T01:29:36;99579.03;;;11.30;100.00
12969;BME280;6549;53.128;8.182;2022-11-04T01:32:36;99582.56;;;11.30;100.00
12969;BME280;6549;53.128;8.182;2022-11-04T01:35:36;99577.84;;;11.31;100.00
12969;BME280;6549;53.128;8.182;2022-11-04T01:38:37;99577.13;;;11.26;100.00
12969;BME280;6549;53.128;8.182;2022-11-04T01:41:38;99579.16;;;11.22;100.00
12969;BME280;6549;53.128;8.182;2022-11-04T01:44:46;99590.16;;;11.22;100.00
12969;BME280;6549;53.128;8.182;2022-11-04T01:48:01;99591.41;;;11.18;100.00
12969;BME280;6549;53.128;8.182;2022-11-04T01:51:03;99584.41;;;11.13;100.00
12969;BME280;6549;53.128;8.182;2022-11-04T01:54:05;99591.41;;;11.18;100.00
12969;BME280;6549;53.128;8.182;2022-11-04T01:57:10;99580.09;;;11.12;100.00
12969;BME280;6549;53.128;8.182;2022-11-04T02:00:13;99574.72;;;11.05;100.00
12969;BME280;6549;53.128;8.182;2022-11-04T02:03:17;99592.47;;;11.01;100.00
12969;BME280;6549;53.128;8.182;2022-11-04T02:06:21;99594.50;;;10.93;100.00
12969;BME280;6549;53.128;8.182;2022-11-04T02:09:23;99582.47;;;10.87;100.00
12969;BME280;6549;53.128;8.182;2022-11-04T02:12:24;99591.09;;;10.86;100.00
12969;BME280;6549;53.128;8.182;2022-11-04T02:15:49;99599.16;;;10.73;100.00
12969;BME280;6549;53.128;8.182;2022-11-04T02:25:29;99618.09;;;10.64;100.00
12969;BME280;6549;53.128;8.182;2022-11-04T02:32:32;99624.50;;;10.54;100.00
12969;BME280;6549;53.128;8.182;2022-11-04T02:35:42;99654.72;;;10.54;100.00
12969;BME280;6549;53.128;8.182;2022-11-04T02:38:50;99671.59;;;10.56;100.00
12969;BME280;6549;53.128;8.182;2022-11-04T02:41:56;99678.31;;;10.51;100.00
12969;BME280;6549;53.128;8.182;2022-11-04T02:48:45;99674.50;;;10.42;100.00
12969;BME280;6549;53.128;8.182;2022-11-04T02:55:02;99693.72;;;10.42;100.00
12969;BME280;6549;53.128;8.182;2022-11-04T02:58:09;99697.69;;;10.37;100.00
12969;BME280;6549;53.128;8.182;2022-11-04T03:01:13;99689.00;;;10.42;100.00
12969;BME280;6549;53.128;8.182;2022-11-04T03:04:24;99692.63;;;10.35;100.00
12969;BME280;6549;53.128;8.182;2022-11-04T03:07:32;99682.41;;;10.36;100.00
12969;BME280;6549;53.128;8.182;2022-11-04T03:10:36;99689.88;;;10.35;100.00
12969;BME280;6549;53.128;8.182;2022-11-04T03:13:44;99692.69;;;10.28;100.00
12969;BME280;6549;53.128;8.182;2022-11-04T03:16:52;99708.03;;;10.22;100.00
12969;BME280;6549;53.128;8.182;2022-11-04T03:20:01;99703.16;;;10.41;100.00
12969;BME280;6549;53.128;8.182;2022-11-04T03:23:02;99699.63;;;10.40;100.00
12969;BME280;6549;53.128;8.182;2022-11-04T03:26:16;99708.00;;;10.29;100.00
12969;BME280;6549;53.128;8.182;2022-11-04T03:29:32;99709.91;;;10.32;100.00
12969;BME280;6549;53.128;8.182;2022-11-04T03:32:58;99734.31;;;10.23;100.00
12969;BME280;6549;53.128;8.182;2022-11-04T03:36:03;99725.78;;;10.11;100.00
12969;BME280;6549;53.128;8.182;2022-11-04T03:39:04;99733.69;;;10.05;100.00
12969;BME280;6549;53.128;8.182;2022-11-04T03:42:10;99743.44;;;10.13;100.00
12969;BME280;6549;53.128;8.182;2022-11-04T03:45:19;99735.59;;;10.12;100.00
12969;BME280;6549;53.128;8.182;2022-11-04T03:48:21;99744.97;;;10.18;100.00
12969;BME280;6549;53.128;8.182;2022-11-04T03:51:21;99753.59;;;10.20;100.00
12969;BME280;6549;53.128;8.182;2022-11-04T03:54:21;99748.06;;;10.23;100.00
12969;BME280;6549;53.128;8.182;2022-11-04T04:00:34;99776.38;;;10.17;100.00
12969;BME280;6549;53.128;8.182;2022-11-04T04:03:45;99772.41;;;10.18;100.00
12969;BME280;6549;53.128;8.182;2022-11-04T04:06:47;99784.56;;;10.20;100.00
12969;BME280;6549;53.128;8.182;2022-11-04T04:09:57;99780.22;;;10.23;100.00
12969;BME280;6549;53.128;8.182;2022-11-04T04:13:08;99791.19;;;10.23;100.00
12969;BME280;6549;53.128;8.182;2022-11-04T04:16:18;99785.38;;;10.17;100.00
12969;BME280;6549;53.128;8.182;2022-11-04T04:19:21;99794.81;;;10.16;100.00
12969;BME280;6549;53.128;8.182;2022-11-04T04:22:27;99795.97;;;10.15;100.00
12969;BME280;6549;53.128;8.182;2022-11-04T04:25:30;99809.72;;;10.15;100.00
12969;BME280;6549;53.128;8.182;2022-11-04T04:28:51;99808.94;;;10.11;100.00
12969;BME280;6549;53.128;8.182;2022-11-04T04:31:53;99821.09;;;10.10;100.00
12969;BME280;6549;53.128;8.182;2022-11-04T04:34:56;99814.84;;;10.06;100.00
12969;BME280;6549;53.128;8.182;2022-11-04T04:41:40;99830.63;;;9.95;100.00
12969;BME280;6549;53.128;8.182;2022-11-04T04:45:01;99838.47;;;9.93;100.00
12969;BME280;6549;53.128;8.182;2022-11-04T04:48:05;99836.97;;;9.85;100.00
12969;BME280;6549;53.128;8.182;2022-11-04T04:51:07;99837.03;;;9.74;100.00
12969;BME280;6549;53.128;8.182;2022-11-04T04:54:08;99862.13;;;9.73;100.00
12969;BME280;6549;53.128;8.182;2022-11-04T04:57:08;99862.41;;;9.89;100.00
12969;BME280;6549;53.128;8.182;2022-11-04T05:00:14;99867.06;;;9.99;100.00
12969;BME280;6549;53.128;8.182;2022-11-04T05:03:15;99857.69;;;9.93;100.00
12969;BME280;6549;53.128;8.182;2022-11-04T05:06:15;99865.13;;;9.92;100.00
12969;BME280;6549;53.128;8.182;2022-11-04T05:09:15;99861.59;;;9.92;100.00
12969;BME280;6549;53.128;8.182;2022-11-04T05:12:16;99867.41;;;10.01;100.00
12969;BME280;6549;53.128;8.182;2022-11-04T05:15:17;99865.91;;;9.93;100.00
12969;BME280;6549;53.128;8.182;2022-11-04T05:18:17;99869.84;;;9.96;100.00
12969;BME280;6549;53.128;8.182;2022-11-04T05:21:17;99869.03;;;9.99;100.00
12969;BME280;6549;53.128;8.182;2022-11-04T05:24:18;99866.69;;;9.93;100.00
12969;BME280;6549;53.128;8.182;2022-11-04T05:27:18;99861.66;;;9.85;100.00
12969;BME280;6549;53.128;8.182;2022-11-04T05:30:19;99870.34;;;9.76;100.00
12969;BME280;6549;53.128;8.182;2022-11-04T05:33:19;99880.53;;;9.76;100.00
12969;BME280;6549;53.128;8.182;2022-11-04T05:36:20;99882.03;;;9.84;100.00
12969;BME280;6549;53.128;8.182;2022-11-04T05:39:20;99890.28;;;9.84;100.00
12969;BME280;6549;53.128;8.182;2022-11-04T05:42:20;99897.72;;;9.83;100.00
12969;BME280;6549;53.128;8.182;2022-11-04T05:45:21;99896.94;;;9.83;100.00
12969;BME280;6549;53.128;8.182;2022-11-04T05:48:21;99905.16;;;9.83;100.00
12969;BME280;6549;53.128;8.182;2022-11-04T05:51:24;99915.38;;;9.86;100.00
12969;BME280;6549;53.128;8.182;2022-11-04T05:54:25;99910.63;;;9.90;100.00
12969;BME280;6549;53.128;8.182;2022-11-04T05:57:25;99920.84;;;9.86;100.00
12969;BME280;6549;53.128;8.182;2022-11-04T06:00:26;99927.50;;;9.85;100.00
12969;BME280;6549;53.128;8.182;2022-11-04T06:03:26;99932.66;;;9.76;100.00
12969;BME280;6549;53.128;8.182;2022-11-04T06:06:30;99945.97;;;9.74;100.00
12969;BME280;6549;53.128;8.182;2022-11-04T06:09:30;99946.78;;;9.71;100.00
12969;BME280;6549;53.128;8.182;2022-11-04T06:12:40;99951.50;;;9.70;100.00
12969;BME280;6549;53.128;8.182;2022-11-04T06:15:43;99948.34;;;9.72;100.00
12969;BME280;6549;53.128;8.182;2022-11-04T06:18:44;99955.41;;;9.73;100.00
12969;BME280;6549;53.128;8.182;2022-11-04T06:21:44;99956.19;;;9.70;100.00
12969;BME280;6549;53.128;8.182;2022-11-04T06:24:45;99964.81;;;9.65;100.00
12969;BME280;6549;53.128;8.182;2022-11-04T06:27:46;99971.88;;;9.66;100.00
12969;BME280;6549;53.128;8.182;2022-11-04T06:30:46;99971.88;;;9.66;100.00
12969;BME280;6549;53.128;8.182;2022-11-04T06:33:46;99972.69;;;9.63;100.00
12969;BME280;6549;53.128;8.182;2022-11-04T06:36:48;99980.53;;;9.57;100.00
12969;BME280;6549;53.128;8.182;2022-11-04T06:39:48;99977.38;;;9.62;100.00
12969;BME280;6549;53.128;8.182;2022-11-04T06:42:48;99991.94;;;9.56;100.00
12969;BME280;6549;53.128;8.182;2022-11-04T06:45:56;99999.34;;;9.59;100.00
12969;BME280;6549;53.128;8.182;2022-11-04T06:48:57;99997.78;;;9.58;100.00
12969;BME280;6549;53.128;8.182;2022-11-04T06:51:57;99998.53;;;9.62;100.00
12969;BME280;6549;53.128;8.182;2022-11-04T06:54:58;100005.63;;;9.59;100.00
12969;BME280;6549;53.128;8.182;2022-11-04T06:57:58;100021.66;;;9.61;100.00
12969;BME280;6549;53.128;8.182;2022-11-04T07:00:58;100041.25;;;9.63;100.00
12969;BME280;6549;53.128;8.182;2022-11-04T07:04:01;100040.09;;;9.60;100.00
12969;BME280;6549;53.128;8.182;2022-11-04T07:07:01;100047.16;;;9.58;100.00
12969;BME280;6549;53.128;8.182;2022-11-04T07:10:01;100058.91;;;9.58;100.00
12969;BME280;6549;53.128;8.182;2022-11-04T07:13:02;100052.63;;;9.61;100.00
12969;BME280;6549;53.128;8.182;2022-11-04T07:16:04;100068.28;;;9.61;100.00
12969;BME280;6549;53.128;8.182;2022-11-04T07:19:05;100082.78;;;9.61;100.00
12969;BME280;6549;53.128;8.182;2022-11-04T07:22:05;100102.00;;;9.61;100.00
12969;BME280;6549;53.128;8.182;2022-11-04T07:25:07;100101.97;;;9.65;100.00
12969;BME280;6549;53.128;8.182;2022-11-04T07:28:08;100104.34;;;9.73;100.00
12969;BME280;6549;53.128;8.182;2022-11-04T07:31:10;100105.50;;;9.76;100.00
12969;BME280;6549;53.128;8.182;2022-11-04T07:34:11;100098.03;;;9.80;100.00
12969;BME280;6549;53.128;8.182;2022-11-04T07:37:12;100107.84;;;9.84;100.00
12969;BME280;6549;53.128;8.182;2022-11-04T07:40:12;100118.41;;;9.82;100.00
12969;BME280;6549;53.128;8.182;2022-11-04T07:43:12;100116.09;;;9.77;100.00
12969;BME280;6549;53.128;8.182;2022-11-04T07:46:13;100127.06;;;9.77;100.00
12969;BME280;6549;53.128;8.182;2022-11-04T07:49:14;100120.00;;;9.80;100.00
12969;BME280;6549;53.128;8.182;2022-11-04T07:52:14;100136.06;;;9.81;100.00
12969;BME280;6549;53.128;8.182;2022-11-04T07:55:16;100140.38;;;9.82;100.00
12969;BME280;6549;53.128;8.182;2022-11-04T07:58:19;100145.88;;;9.86;100.00
12969;BME280;6549;53.128;8.182;2022-11-04T08:01:21;100147.81;;;9.85;100.00
12969;BME280;6549;53.128;8.182;2022-11-04T08:04:22;100152.50;;;9.88;100.00
12969;BME280;6549;53.128;8.182;2022-11-04T08:07:22;100157.22;;;9.91;100.00
12969;BME280;6549;53.128;8.182;2022-11-04T08:10:23;100162.69;;;9.91;100.00
12969;BME280;6549;53.128;8.182;2022-11-04T08:13:26;100157.59;;;9.93;100.00
12969;BME280;6549;53.128;8.182;2022-11-04T08:16:27;100163.91;;;9.90;100.00
12969;BME280;6549;53.128;8.182;2022-11-04T08:19:27;100161.53;;;9.85;100.00
12969;BME280;6549;53.128;8.182;2022-11-04T08:22:28;100162.72;;;9.88;100.00
12969;BME280;6549;53.128;8.182;2022-11-04T08:25:28;100167.00;;;9.92;100.00
12969;BME280;6549;53.128;8.182;2022-11-04T08:28:28;100172.88;;;10.05;100.00
12969;BME280;6549;53.128;8.182;2022-11-04T08:31:30;100164.63;;;11.03;100.00
12969;BME280;6549;53.128;8.182;2022-11-04T08:34:31;100168.66;;;11.43;100.00
12969;BME280;6549;53.128;8.182;2022-11-04T08:37:31;100172.09;;;11.06;100.00
12969;BME280;6549;53.128;8.182;2022-11-04T08:40:31;100169.91;;;10.72;100.00
12969;BME280;6549;53.128;8.182;2022-11-04T08:43:32;100184.91;;;10.54;100.00
12969;BME280;6549;53.128;8.182;2022-11-04T08:46:36;100188.00;;;10.63;100.00
12969;BME280;6549;53.128;8.182;2022-11-04T08:49:38;100195.41;;;11.94;100.00
12969;BME280;6549;53.128;8.182;2022-11-04T08:52:41;100191.34;;;13.03;100.00
12969;BME280;6549;53.128;8.182;2022-11-04T08:55:42;100192.53;;;13.02;100.00
12969;BME280;6549;53.128;8.182;2022-11-04T08:58:42;100194.03;;;13.07;100.00
12969;BME280;6549;53.128;8.182;2022-11-04T09:01:46;100204.47;;;14.43;100.00
12969;BME280;6549;53.128;8.182;2022-11-04T09:04:48;100213.06;;;15.88;100.00
12969;BME280;6549;53.128;8.182;2022-11-04T09:07:49;100209.06;;;16.34;100.00
12969;BME280;6549;53.128;8.182;2022-11-04T09:10:49;100208.59;;;16.52;100.00
12969;BME280;6549;53.128;8.182;2022-11-04T09:13:49;100211.78;;;16.79;100.00
12969;BME280;6549;53.128;8.182;2022-11-04T09:16:50;100219.53;;;17.38;97.00
12969;BME280;6549;53.128;8.182;2022-11-04T09:19:53;100225.06;;;17.13;100.00
12969;BME280;6549;53.128;8.182;2022-11-04T09:22:54;100222.41;;;16.39;100.00
12969;BME280;6549;53.128;8.182;2022-11-04T09:25:56;100223.91;;;15.83;100.00
12969;BME280;6549;53.128;8.182;2022-11-04T09:28:58;100230.81;;;15.91;100.00
12969;BME280;6549;53.128;8.182;2022-11-04T09:31:59;100237.38;;;15.48;100.00
12969;BME280;6549;53.128;8.182;2022-11-04T09:35:00;100257.88;;;14.36;100.00
12969;BME280;6549;53.128;8.182;2022-11-04T09:38:00;100251.97;;;13.64;100.00
12969;BME280;6549;53.128;8.182;2022-11-04T09:41:33;100259.41;;;13.14;100.00
12969;BME280;6549;53.128;8.182;2022-11-04T09:44:37;100269.16;;;12.54;100.00
12969;BME280;6549;53.128;8.182;2022-11-04T09:47:41;100273.97;;;12.05;100.00
12969;BME280;6549;53.128;8.182;2022-11-04T09:50:46;100281.22;;;11.82;100.00
12969;BME280;6549;53.128;8.182;2022-11-04T09:53:50;100284.06;;;11.64;100.00
12969;BME280;6549;53.128;8.182;2022-11-04T09:56:54;100288.06;;;11.59;100.00
12969;BME280;6549;53.128;8.182;2022-11-04T09:59:57;100281.78;;;11.59;100.00
12969;BME280;6549;53.128;8.182;2022-11-04T10:09:54;100267.63;;;11.57;100.00
12969;BME280;6549;53.128;8.182;2022-11-04T10:16:16;100268.16;;;11.93;100.00
12969;BME280;6549;53.128;8.182;2022-11-04T10:19:29;100278.38;;;12.37;100.00
12969;BME280;6549;53.128;8.182;2022-11-04T10:22:56;100273.94;;;13.18;100.00
12969;BME280;6549;53.128;8.182;2022-11-04T10:26:12;100271.75;;;13.59;100.00
12969;BME280;6549;53.128;8.182;2022-11-04T10:29:16;100278.41;;;14.12;100.00
12969;BME280;6549;53.128;8.182;2022-11-04T10:35:52;100280.94;;;13.79;100.00
12969;BME280;6549;53.128;8.182;2022-11-04T10:38:57;100278.38;;;13.65;100.00
12969;BME280;6549;53.128;8.182;2022-11-04T10:41:58;100284.03;;;13.28;100.00
12969;BME280;6549;53.128;8.182;2022-11-04T10:44:58;100289.63;;;12.90;100.00
12969;BME280;6549;53.128;8.182;2022-11-04T10:48:10;100290.91;;;12.82;100.00
12969;BME280;6549;53.128;8.182;2022-11-04T10:51:15;100305.66;;;12.65;100.00
12969;BME280;6549;53.128;8.182;2022-11-04T10:54:19;100324.72;;;12.49;100.00
12969;BME280;6549;53.128;8.182;2022-11-04T10:57:27;100330.34;;;12.35;100.00
12969;BME280;6549;53.128;8.182;2022-11-04T11:00:37;100334.31;;;12.34;100.00
12969;BME280;6549;53.128;8.182;2022-11-04T11:03:38;100330.34;;;12.35;100.00
12969;BME280;6549;53.128;8.182;2022-11-04T11:06:38;100339.81;;;12.34;100.00
12969;BME280;6549;53.128;8.182;2022-11-04T11:12:39;100325.16;;;12.44;100.00
12969;BME280;6549;53.128;8.182;2022-11-04T11:16:03;100324.47;;;12.33;100.00
12969;BME280;6549;53.128;8.182;2022-11-04T11:22:28;100350.00;;;12.40;100.00
12969;BME280;6549;53.128;8.182;2022-11-04T11:25:32;100363.97;;;12.15;100.00
12969;BME280;6549;53.128;8.182;2022-11-04T11:28:33;100361.72;;;12.03;100.00
12969;BME280;6549;53.128;8.182;2022-11-04T11:31:38;100375.81;;;12.12;100.00
12969;BME280;6549;53.128;8.182;2022-11-04T11:34:39;100379.41;;;12.54;100.00
12969;BME280;6549;53.128;8.182;2022-11-04T11:37:44;100371.81;;;13.02;100.00
12969;BME280;6549;53.128;8.182;2022-11-04T11:40:46;100378.75;;;13.52;100.00
12969;BME280;6549;53.128;8.182;2022-11-04T11:43:52;100383.47;;;13.81;100.00
12969;BME280;6549;53.128;8.182;2022-11-04T11:46:55;100379.66;;;13.99;100.00
12969;BME280;6549;53.128;8.182;2022-11-04T11:50:04;100381.94;;;14.04;100.00
12969;BME280;6549;53.128;8.182;2022-11-04T11:53:13;100380.16;;;14.17;100.00
12969;BME280;6549;53.128;8.182;2022-11-04T11:56:23;100381.06;;;14.10;100.00
12969;BME280;6549;53.128;8.182;2022-11-04T11:59:52;100391.41;;;14.29;100.00
12969;BME280;6549;53.128;8.182;2022-11-04T12:02:59;100393.34;;;14.32;100.00
12969;BME280;6549;53.128;8.182;2022-11-04T12:06:26;100391.22;;;14.44;100.00
12969;BME280;6549;53.128;8.182;2022-11-04T12:09:52;100386.84;;;14.46;100.00
12969;BME280;6549;53.128;8.182;2022-11-04T12:29:35;100388.81;;;14.46;100.00
12969;BME280;6549;53.128;8.182;2022-11-04T12:45:33;100385.69;;;14.17;100.00
12969;BME280;6549;53.128;8.182;2022-11-04T12:48:43;100398.72;;;14.16;100.00
12969;BME280;6549;53.128;8.182;2022-11-04T12:51:57;100393.38;;;14.06;100.00
12969;BME280;6549;53.128;8.182;2022-11-04T12:55:16;100396.88;;;14.10;100.00
12969;BME280;6549;53.128;8.182;2022-11-04T12:58:47;100401.22;;;14.34;100.00
12969;BME280;6549;53.128;8.182;2022-11-04T13:01:58;100407.72;;;14.47;100.00
12969;BME280;6549;53.128;8.182;2022-11-04T13:12:31;100408.22;;;14.65;100.00
12969;BME280;6549;53.128;8.182;2022-11-04T13:15:47;100397.53;;;14.67;100.00
12969;BME280;6549;53.128;8.182;2022-11-04T13:18:49;100407.09;;;14.63;100.00
12969;BME280;6549;53.128;8.182;2022-11-04T13:21:52;100408.97;;;14.46;100.00
12969;BME280;6549;53.128;8.182;2022-11-04T13:25:04;100412.44;;;14.23;100.00
12969;BME280;6549;53.128;8.182;2022-11-04T13:28:17;100405.31;;;13.99;100.00
12969;BME280;6549;53.128;8.182;2022-11-04T13:31:31;100403.22;;;13.80;100.00
12969;BME280;6549;53.128;8.182;2022-11-04T13:34:41;100407.03;;;13.59;100.00
12969;BME280;6549;53.128;8.182;2022-11-04T13:38:39;100407.22;;;13.45;100.00
12969;BME280;6549;53.128;8.182;2022-11-04T13:45:12;100404.75;;;13.20;100.00
12969;BME280;6549;53.128;8.182;2022-11-04T13:48:18;100418.59;;;13.17;100.00
12969;BME280;6549;53.128;8.182;2022-11-04T13:51:20;100424.00;;;13.24;100.00
12969;BME280;6549;53.128;8.182;2022-11-04T13:54:30;100421.94;;;13.35;100.00
12969;BME280;6549;53.128;8.182;2022-11-04T13:57:56;100430.94;;;13.39;100.00
12969;BME280;6549;53.128;8.182;2022-11-04T14:01:26;100439.69;;;13.34;100.00
12969;BME280;6549;53.128;8.182;2022-11-04T14:04:30;100448.84;;;13.24;100.00
12969;BME280;6549;53.128;8.182;2022-11-04T14:13:45;100470.75;;;12.97;100.00
12969;BME280;6549;53.128;8.182;2022-11-04T14:16:46;100473.56;;;12.93;100.00
12969;BME280;6549;53.128;8.182;2022-11-04T14:19:57;100475.16;;;12.91;100.00
12969;BME280;6549;53.128;8.182;2022-11-04T14:22:59;100473.19;;;12.91;100.00
12969;BME280;6549;53.128;8.182;2022-11-04T14:26:03;100485.81;;;12.89;100.00
12969;BME280;6549;53.128;8.182;2022-11-04T14:29:08;100488.59;;;12.85;100.00
12969;BME280;6549;53.128;8.182;2022-11-04T14:32:13;100489.06;;;12.77;100.00
12969;BME280;6549;53.128;8.182;2022-11-04T14:35:17;100485.59;;;12.69;100.00
12969;BME280;6549;53.128;8.182;2022-11-04T14:38:28;100497.03;;;12.68;100.00
12969;BME280;6549;53.128;8.182;2022-11-04T14:41:54;100502.16;;;12.66;100.00
12969;BME280;6549;53.128;8.182;2022-11-04T14:44:55;100502.31;;;12.48;100.00
12969;BME280;6549;53.128;8.182;2022-11-04T14:48:09;100513.44;;;12.30;100.00
12969;BME280;6549;53.128;8.182;2022-11-04T14:51:25;100511.16;;;12.11;100.00
12969;BME280;6549;53.128;8.182;2022-11-04T14:54:30;100514.81;;;11.90;100.00
12969;BME280;6549;53.128;8.182;2022-11-04T14:57:39;100515.22;;;11.82;100.00
12969;BME280;6549;53.128;8.182;2022-11-04T15:00:50;100519.97;;;11.74;100.00
12969;BME280;6549;53.128;8.182;2022-11-04T15:03:52;100526.25;;;11.64;100.00
12969;BME280;6549;53.128;8.182;2022-11-04T15:06:57;100545.16;;;11.62;100.00
12969;BME280;6549;53.128;8.182;2022-11-04T15:09:57;100546.34;;;11.57;100.00
12969;BME280;6549;53.128;8.182;2022-11-04T15:13:00;100558.16;;;11.51;100.00
12969;BME280;6549;53.128;8.182;2022-11-04T15:16:06;100559.34;;;11.43;100.00
12969;BME280;6549;53.128;8.182;2022-11-04T15:19:08;100563.69;;;11.40;100.00
12969;BME280;6549;53.128;8.182;2022-11-04T15:22:11;100569.56;;;11.46;100.00
12969;BME280;6549;53.128;8.182;2022-11-04T15:25:12;100568.81;;;11.42;100.00
12969;BME280;6549;53.128;8.182;2022-11-04T15:28:20;100573.50;;;11.38;100.00
12969;BME280;6549;53.128;8.182;2022-11-04T15:31:24;100577.44;;;11.30;100.00
12969;BME280;6549;53.128;8.182;2022-11-04T15:34:25;100587.66;;;11.22;100.00
12969;BME280;6549;53.128;8.182;2022-11-04T15:37:28;100605.72;;;11.12;100.00
12969;BME280;6549;53.128;8.182;2022-11-04T15:40:38;100606.50;;;10.99;100.00
12969;BME280;6549;53.128;8.182;2022-11-04T15:43:38;100617.50;;;10.88;100.00
12969;BME280;6549;53.128;8.182;2022-11-04T15:46:39;100610.81;;;10.75;100.00
12969;BME280;6549;53.128;8.182;2022-11-04T15:49:39;100615.84;;;10.55;100.00
12969;BME280;6549;53.128;8.182;2022-11-04T15:52:48;100607.97;;;10.47;100.00
12969;BME280;6549;53.128;8.182;2022-11-04T15:55:50;100615.00;;;10.37;100.00
12969;BME280;6549;53.128;8.182;2022-11-04T15:58:51;100626.78;;;10.30;100.00
12969;BME280;6549;53.128;8.182;2022-11-04T16:01:53;100632.63;;;10.22;100.00
12969;BME280;6549;53.128;8.182;2022-11-04T16:08:23;100628.53;;;9.98;100.00
12969;BME280;6549;53.128;8.182;2022-11-04T16:11:26;100627.69;;;9.87;100.00
12969;BME280;6549;53.128;8.182;2022-11-04T16:14:28;100634.72;;;9.77;100.00
12969;BME280;6549;53.128;8.182;2022-11-04T16:17:30;100631.88;;;9.67;100.00
12969;BME280;6549;53.128;8.182;2022-11-04T16:20:31;100634.19;;;9.61;100.00
12969;BME280;6549;53.128;8.182;2022-11-04T16:23:35;100627.88;;;9.54;100.00
12969;BME280;6549;53.128;8.182;2022-11-04T16:26:40;100627.84;;;9.46;100.00
12969;BME280;6549;53.128;8.182;2022-11-04T16:29:51;100636.00;;;9.39;100.00
12969;BME280;6549;53.128;8.182;2022-11-04T16:32:53;100637.47;;;9.30;100.00
12969;BME280;6549;53.128;8.182;2022-11-04T16:35:55;100641.75;;;9.24;100.00
12969;BME280;6549;53.128;8.182;2022-11-04T16:38:58;100640.84;;;9.13;100.00
12969;BME280;6549;53.128;8.182;2022-11-04T16:41:58;100649.78;;;9.02;100.00
12969;BME280;6549;53.128;8.182;2022-11-04T16:45:01;100655.56;;;8.94;100.00
12969;BME280;6549;53.128;8.182;2022-11-04T16:48:03;100670.34;;;8.86;100.00
12969;BME280;6549;53.128;8.182;2022-11-04T16:51:04;100667.91;;;8.77;100.00
12969;BME280;6549;53.128;8.182;2022-11-04T16:54:04;100667.84;;;8.70;100.00
12969;BME280;6549;53.128;8.182;2022-11-04T16:57:05;100666.56;;;8.61;100.00
12969;BME280;6549;53.128;8.182;2022-11-04T17:00:22;100665.31;;;8.54;100.00
12969;BME280;6549;53.128;8.182;2022-11-04T17:03:22;100670.72;;;8.47;100.00
12969;BME280;6549;53.128;8.182;2022-11-04T17:06:23;100672.97;;;8.42;100.00
12969;BME280;6549;53.128;8.182;2022-11-04T17:09:24;100675.28;;;8.36;100.00
12969;BME280;6549;53.128;8.182;2022-11-04T17:12:24;100680.28;;;8.31;100.00
12969;BME280;6549;53.128;8.182;2022-11-04T17:15:25;100678.53;;;8.19;100.00
12969;BME280;6549;53.128;8.182;2022-11-04T17:18:29;100684.34;;;8.14;100.00
12969;BME280;6549;53.128;8.182;2022-11-04T17:21:29;100682.28;;;8.07;100.00
12969;BME280;6549;53.128;8.182;2022-11-04T17:24:30;100697.50;;;8.05;100.00
12969;BME280;6549;53.128;8.182;2022-11-04T17:27:30;100691.19;;;8.01;100.00
12969;BME280;6549;53.128;8.182;2022-11-04T17:30:30;100700.56;;;8.00;100.00
12969;BME280;6549;53.128;8.182;2022-11-04T17:33:32;100712.22;;;7.97;100.00
12969;BME280;6549;53.128;8.182;2022-11-04T17:36:32;100711.38;;;7.93;100.00
12969;BME280;6549;53.128;8.182;2022-11-04T17:39:33;100712.06;;;7.86;100.00
12969;BME280;6549;53.128;8.182;2022-11-04T17:42:33;100722.22;;;7.86;100.00
12969;BME280;6549;53.128;8.182;2022-11-04T17:45:52;100717.50;;;7.83;100.00
12969;BME280;6549;53.128;8.182;2022-11-04T17:52:14;100721.22;;;7.71;100.00
12969;BME280;6549;53.128;8.182;2022-11-04T17:55:15;100725.03;;;7.66;100.00